sensor_id;sensor_type;location;lat;lon;timestamp;P1;durP1;ratioP1;P2;durP2;ratioP2
16099;SDS011;8154;50.830;12.082;2024-02-15T00:02:29;6.10;;;2.50;;
16099;SDS011;8154;50.830;12.082;2024-02-15T00:04:58;5.13;;;2.20;;
16099;SDS011;8154;50.830;12.082;2024-02-15T00:07:24;5.50;;;2.70;;
16099;SDS011;8154;50.830;12.082;2024-02-15T00:09:53;5.68;;;2.58;;
16099;SDS011;8154;50.830;12.082;2024-02-15T00:12:20;5.57;;;2.45;;
16099;SDS011;8154;50.830;12.082;2024-02-15T00:14:47;5.50;;;2.47;;
16099;SDS011;8154;50.830;12.082;2024-02-15T00:17:16;6.50;;;2.53;;
16099;SDS011;8154;50.830;12.082;2024-02-15T00:19:42;5.70;;;2.42;;
16099;SDS011;8154;50.830;12.082;2024-02-15T00:22:10;4.32;;;2.08;;
16099;SDS011;8154;50.830;12.082;2024-02-15T00:24:37;4.85;;;2.13;;
16099;SDS011;8154;50.830;12.082;2024-02-15T00:27:04;5.57;;;2.20;;
16099;SDS011;8154;50.830;12.082;2024-02-15T00:29:30;5.47;;;2.38;;
16099;SDS011;8154;50.830;12.082;2024-02-15T00:31:57;5.13;;;2.20;;
16099;SDS011;8154;50.830;12.082;2024-02-15T00:34:25;5.65;;;2.42;;
16099;SDS011;8154;50.830;12.082;2024-02-15T00:36:53;5.35;;;2.22;;
16099;SDS011;8154;50.830;12.082;2024-02-15T00:39:19;5.43;;;2.30;;
16099;SDS011;8154;50.830;12.082;2024-02-15T00:41:46;5.75;;;2.20;;
16099;SDS011;8154;50.830;12.082;2024-02-15T00:44:12;4.82;;;2.13;;
16099;SDS011;8154;50.830;12.082;2024-02-15T00:46:38;4.90;;;2.17;;
16099;SDS011;8154;50.830;12.082;2024-02-15T00:49:06;5.10;;;2.17;;
16099;SDS011;8154;50.830;12.082;2024-02-15T00:51:32;4.77;;;2.10;;
16099;SDS011;8154;50.830;12.082;2024-02-15T00:54:00;5.30;;;2.05;;
16099;SDS011;8154;50.830;12.082;2024-02-15T00:56:28;5.00;;;2.25;;
16099;SDS011;8154;50.830;12.082;2024-02-15T00:58:59;4.80;;;2.00;;
16099;SDS011;8154;50.830;12.082;2024-02-15T01:01:30;5.25;;;2.13;;
16099;SDS011;8154;50.830;12.082;2024-02-15T01:03:58;5.13;;;2.30;;
16099;SDS011;8154;50.830;12.082;2024-02-15T01:06:24;4.60;;;1.90;;
16099;SDS011;8154;50.830;12.082;2024-02-15T01:08:51;4.78;;;1.98;;
16099;SDS011;8154;50.830;12.082;2024-02-15T01:11:18;4.10;;;1.88;;
16099;SDS011;8154;50.830;12.082;2024-02-15T01:13:45;5.15;;;2.20;;
16099;SDS011;8154;50.830;12.082;2024-02-15T01:16:12;4.40;;;1.97;;
16099;SDS011;8154;50.830;12.082;2024-02-15T01:18:39;4.50;;;1.88;;
16099;SDS011;8154;50.830;12.082;2024-02-15T01:21:06;4.60;;;1.90;;
16099;SDS011;8154;50.830;12.082;2024-02-15T01:23:33;5.30;;;2.00;;
16099;SDS011;8154;50.830;12.082;2024-02-15T01:26:03;5.47;;;2.28;;
16099;SDS011;8154;50.830;12.082;2024-02-15T01:28:32;4.93;;;1.93;;
16099;SDS011;8154;50.830;12.082;2024-02-15T01:30:59;4.20;;;1.88;;
16099;SDS011;8154;50.830;12.082;2024-02-15T01:33:26;4.18;;;1.90;;
16099;SDS011;8154;50.830;12.082;2024-02-15T01:35:55;4.05;;;1.80;;
16099;SDS011;8154;50.830;12.082;2024-02-15T01:38:23;4.22;;;1.85;;
16099;SDS011;8154;50.830;12.082;2024-02-15T01:40:51;3.67;;;1.70;;
16099;SDS011;8154;50.830;12.082;2024-02-15T01:43:18;5.13;;;1.70;;
16099;SDS011;8154;50.830;12.082;2024-02-15T01:45:45;4.43;;;1.83;;
16099;SDS011;8154;50.830;12.082;2024-02-15T01:48:13;4.70;;;1.83;;
16099;SDS011;8154;50.830;12.082;2024-02-15T01:50:42;4.68;;;1.95;;
16099;SDS011;8154;50.830;12.082;2024-02-15T01:53:10;5.03;;;2.10;;
16099;SDS011;8154;50.830;12.082;2024-02-15T01:55:38;3.95;;;1.70;;
16099;SDS011;8154;50.830;12.082;2024-02-15T01:58:06;3.80;;;1.70;;
16099;SDS011;8154;50.830;12.082;2024-02-15T02:00:33;3.83;;;1.60;;
16099;SDS011;8154;50.830;12.082;2024-02-15T02:03:05;4.70;;;2.00;;
16099;SDS011;8154;50.830;12.082;2024-02-15T02:05:32;3.60;;;1.67;;
16099;SDS011;8154;50.830;12.082;2024-02-15T02:07:59;4.35;;;1.90;;
16099;SDS011;8154;50.830;12.082;2024-02-15T02:10:30;4.35;;;1.75;;
16099;SDS011;8154;50.830;12.082;2024-02-15T02:13:00;4.18;;;1.73;;
16099;SDS011;8154;50.830;12.082;2024-02-15T02:15:31;4.20;;;1.80;;
16099;SDS011;8154;50.830;12.082;2024-02-15T02:18:01;3.60;;;1.70;;
16099;SDS011;8154;50.830;12.082;2024-02-15T02:20:28;4.18;;;1.70;;
16099;SDS011;8154;50.830;12.082;2024-02-15T02:22:57;4.00;;;1.60;;
16099;SDS011;8154;50.830;12.082;2024-02-15T02:25:34;4.25;;;1.75;;
16099;SDS011;8154;50.830;12.082;2024-02-15T02:28:01;3.53;;;1.60;;
16099;SDS011;8154;50.830;12.082;2024-02-15T02:30:28;3.63;;;1.50;;
16099;SDS011;8154;50.830;12.082;2024-02-15T02:32:59;3.38;;;1.42;;
16099;SDS011;8154;50.830;12.082;2024-02-15T02:35:25;3.95;;;1.60;;
16099;SDS011;8154;50.830;12.082;2024-02-15T02:37:53;4.07;;;1.67;;
16099;SDS011;8154;50.830;12.082;2024-02-15T02:40:24;3.38;;;1.60;;
16099;SDS011;8154;50.830;12.082;2024-02-15T02:42:55;3.93;;;1.60;;
16099;SDS011;8154;50.830;12.082;2024-02-15T02:45:25;3.58;;;1.40;;
16099;SDS011;8154;50.830;12.082;2024-02-15T02:47:52;4.18;;;1.60;;
16099;SDS011;8154;50.830;12.082;2024-02-15T02:50:23;4.22;;;1.70;;
16099;SDS011;8154;50.830;12.082;2024-02-15T02:52:51;3.67;;;1.50;;
16099;SDS011;8154;50.830;12.082;2024-02-15T02:55:18;3.73;;;1.50;;
16099;SDS011;8154;50.830;12.082;2024-02-15T02:57:45;3.47;;;1.50;;
16099;SDS011;8154;50.830;12.082;2024-02-15T03:00:12;3.70;;;1.50;;
16099;SDS011;8154;50.830;12.082;2024-02-15T03:02:42;3.38;;;1.40;;
16099;SDS011;8154;50.830;12.082;2024-02-15T03:05:10;3.45;;;1.38;;
16099;SDS011;8154;50.830;12.082;2024-02-15T03:07:41;3.20;;;1.30;;
16099;SDS011;8154;50.830;12.082;2024-02-15T03:10:08;4.30;;;1.50;;
16099;SDS011;8154;50.830;12.082;2024-02-15T03:12:35;2.85;;;1.33;;
16099;SDS011;8154;50.830;12.082;2024-02-15T03:15:03;3.45;;;1.50;;
16099;SDS011;8154;50.830;12.082;2024-02-15T03:17:31;3.22;;;1.45;;
16099;SDS011;8154;50.830;12.082;2024-02-15T03:19:59;3.03;;;1.33;;
16099;SDS011;8154;50.830;12.082;2024-02-15T03:22:27;3.05;;;1.23;;
16099;SDS011;8154;50.830;12.082;2024-02-15T03:24:55;3.90;;;1.50;;
16099;SDS011;8154;50.830;12.082;2024-02-15T03:27:21;3.30;;;1.25;;
16099;SDS011;8154;50.830;12.082;2024-02-15T03:29:49;3.67;;;1.45;;
16099;SDS011;8154;50.830;12.082;2024-02-15T03:32:19;3.20;;;1.40;;
16099;SDS011;8154;50.830;12.082;2024-02-15T03:34:45;3.08;;;1.38;;
16099;SDS011;8154;50.830;12.082;2024-02-15T03:37:14;3.78;;;1.45;;
16099;SDS011;8154;50.830;12.082;2024-02-15T03:39:40;3.70;;;1.50;;
16099;SDS011;8154;50.830;12.082;2024-02-15T03:42:07;2.67;;;1.20;;
16099;SDS011;8154;50.830;12.082;2024-02-15T03:44:34;3.27;;;1.30;;
16099;SDS011;8154;50.830;12.082;2024-02-15T03:47:01;3.30;;;1.42;;
16099;SDS011;8154;50.830;12.082;2024-02-15T03:49:27;3.25;;;1.30;;
16099;SDS011;8154;50.830;12.082;2024-02-15T03:51:54;3.17;;;1.33;;
16099;SDS011;8154;50.830;12.082;2024-02-15T03:54:21;3.03;;;1.30;;
16099;SDS011;8154;50.830;12.082;2024-02-15T03:56:49;3.50;;;1.50;;
16099;SDS011;8154;50.830;12.082;2024-02-15T03:59:20;3.40;;;1.30;;
16099;SDS011;8154;50.830;12.082;2024-02-15T04:01:55;3.40;;;1.30;;
16099;SDS011;8154;50.830;12.082;2024-02-15T04:04:26;3.38;;;1.20;;
16099;SDS011;8154;50.830;12.082;2024-02-15T04:06:57;2.53;;;1.20;;
16099;SDS011;8154;50.830;12.082;2024-02-15T04:09:25;2.60;;;1.17;;
16099;SDS011;8154;50.830;12.082;2024-02-15T04:11:52;2.75;;;1.20;;
16099;SDS011;8154;50.830;12.082;2024-02-15T04:14:19;2.85;;;1.20;;
16099;SDS011;8154;50.830;12.082;2024-02-15T04:16:48;2.72;;;1.20;;
16099;SDS011;8154;50.830;12.082;2024-02-15T04:19:14;3.20;;;1.30;;
16099;SDS011;8154;50.830;12.082;2024-02-15T04:21:41;2.37;;;1.10;;
16099;SDS011;8154;50.830;12.082;2024-02-15T04:24:10;3.10;;;1.10;;
16099;SDS011;8154;50.830;12.082;2024-02-15T04:26:37;3.28;;;1.33;;
16099;SDS011;8154;50.830;12.082;2024-02-15T04:29:05;2.78;;;1.30;;
16099;SDS011;8154;50.830;12.082;2024-02-15T04:31:35;2.97;;;1.35;;
16099;SDS011;8154;50.830;12.082;2024-02-15T04:34:06;2.97;;;1.40;;
16099;SDS011;8154;50.830;12.082;2024-02-15T04:36:33;2.65;;;1.25;;
16099;SDS011;8154;50.830;12.082;2024-02-15T04:39:00;2.38;;;1.08;;
16099;SDS011;8154;50.830;12.082;2024-02-15T04:41:29;2.78;;;1.27;;
16099;SDS011;8154;50.830;12.082;2024-02-15T04:43:57;2.65;;;1.17;;
16099;SDS011;8154;50.830;12.082;2024-02-15T04:46:24;2.30;;;1.30;;
16099;SDS011;8154;50.830;12.082;2024-02-15T04:48:51;3.17;;;1.15;;
16099;SDS011;8154;50.830;12.082;2024-02-15T04:51:20;2.60;;;1.20;;
16099;SDS011;8154;50.830;12.082;2024-02-15T04:53:47;3.15;;;1.20;;
16099;SDS011;8154;50.830;12.082;2024-02-15T04:56:14;2.38;;;1.20;;
16099;SDS011;8154;50.830;12.082;2024-02-15T04:58:43;2.80;;;1.10;;
16099;SDS011;8154;50.830;12.082;2024-02-15T05:01:14;2.45;;;1.20;;
16099;SDS011;8154;50.830;12.082;2024-02-15T05:03:44;2.10;;;1.10;;
16099;SDS011;8154;50.830;12.082;2024-02-15T05:06:14;2.60;;;1.05;;
16099;SDS011;8154;50.830;12.082;2024-02-15T05:08:40;2.63;;;1.20;;
16099;SDS011;8154;50.830;12.082;2024-02-15T05:11:10;2.80;;;1.20;;
16099;SDS011;8154;50.830;12.082;2024-02-15T05:13:45;2.47;;;1.10;;
16099;SDS011;8154;50.830;12.082;2024-02-15T05:16:12;2.25;;;1.10;;
16099;SDS011;8154;50.830;12.082;2024-02-15T05:18:39;2.33;;;1.10;;
16099;SDS011;8154;50.830;12.082;2024-02-15T05:21:09;2.40;;;1.20;;
16099;SDS011;8154;50.830;12.082;2024-02-15T05:23:36;2.20;;;1.00;;
16099;SDS011;8154;50.830;12.082;2024-02-15T05:26:08;2.20;;;1.17;;
16099;SDS011;8154;50.830;12.082;2024-02-15T05:28:35;2.45;;;1.10;;
16099;SDS011;8154;50.830;12.082;2024-02-15T05:31:16;2.65;;;1.10;;
16099;SDS011;8154;50.830;12.082;2024-02-15T05:33:47;3.00;;;1.10;;
16099;SDS011;8154;50.830;12.082;2024-02-15T05:36:14;2.60;;;1.30;;
16099;SDS011;8154;50.830;12.082;2024-02-15T05:38:44;2.55;;;1.00;;
16099;SDS011;8154;50.830;12.082;2024-02-15T05:41:11;2.40;;;1.02;;
16099;SDS011;8154;50.830;12.082;2024-02-15T05:43:40;2.75;;;1.20;;
16099;SDS011;8154;50.830;12.082;2024-02-15T05:46:10;2.90;;;1.25;;
16099;SDS011;8154;50.830;12.082;2024-02-15T05:48:37;3.03;;;1.20;;
16099;SDS011;8154;50.830;12.082;2024-02-15T05:51:07;2.45;;;1.13;;
16099;SDS011;8154;50.830;12.082;2024-02-15T05:53:34;2.50;;;1.10;;
16099;SDS011;8154;50.830;12.082;2024-02-15T05:56:05;3.30;;;1.33;;
16099;SDS011;8154;50.830;12.082;2024-02-15T05:58:36;2.72;;;1.20;;
16099;SDS011;8154;50.830;12.082;2024-02-15T06:01:04;2.90;;;1.23;;
16099;SDS011;8154;50.830;12.082;2024-02-15T06:03:38;2.45;;;1.23;;
16099;SDS011;8154;50.830;12.082;2024-02-15T06:06:07;2.15;;;1.10;;
16099;SDS011;8154;50.830;12.082;2024-02-15T06:08:35;2.85;;;1.17;;
16099;SDS011;8154;50.830;12.082;2024-02-15T06:11:03;2.67;;;1.20;;
16099;SDS011;8154;50.830;12.082;2024-02-15T06:13:36;3.03;;;1.43;;
16099;SDS011;8154;50.830;12.082;2024-02-15T06:16:03;2.33;;;1.25;;
16099;SDS011;8154;50.830;12.082;2024-02-15T06:18:35;2.88;;;1.33;;
16099;SDS011;8154;50.830;12.082;2024-02-15T06:21:03;3.28;;;1.30;;
16099;SDS011;8154;50.830;12.082;2024-02-15T06:23:30;3.03;;;1.40;;
16099;SDS011;8154;50.830;12.082;2024-02-15T06:26:01;3.13;;;1.40;;
16099;SDS011;8154;50.830;12.082;2024-02-15T06:28:29;2.60;;;1.27;;
16099;SDS011;8154;50.830;12.082;2024-02-15T06:31:14;2.72;;;1.20;;
16099;SDS011;8154;50.830;12.082;2024-02-15T06:34:02;2.92;;;1.20;;
16099;SDS011;8154;50.830;12.082;2024-02-15T06:36:56;2.65;;;1.08;;
16099;SDS011;8154;50.830;12.082;2024-02-15T06:39:44;2.63;;;1.40;;
16099;SDS011;8154;50.830;12.082;2024-02-15T06:42:16;2.88;;;1.13;;
16099;SDS011;8154;50.830;12.082;2024-02-15T06:44:46;3.00;;;1.20;;
16099;SDS011;8154;50.830;12.082;2024-02-15T06:47:15;2.67;;;1.17;;
16099;SDS011;8154;50.830;12.082;2024-02-15T06:49:46;2.67;;;1.20;;
16099;SDS011;8154;50.830;12.082;2024-02-15T06:52:16;2.70;;;1.20;;
16099;SDS011;8154;50.830;12.082;2024-02-15T06:54:43;3.25;;;1.30;;
16099;SDS011;8154;50.830;12.082;2024-02-15T06:57:12;2.97;;;1.27;;
16099;SDS011;8154;50.830;12.082;2024-02-15T06:59:45;2.67;;;1.15;;
16099;SDS011;8154;50.830;12.082;2024-02-15T07:02:14;2.47;;;1.20;;
16099;SDS011;8154;50.830;12.082;2024-02-15T07:04:43;2.33;;;1.20;;
16099;SDS011;8154;50.830;12.082;2024-02-15T07:07:11;2.53;;;1.10;;
16099;SDS011;8154;50.830;12.082;2024-02-15T07:09:41;3.65;;;1.33;;
16099;SDS011;8154;50.830;12.082;2024-02-15T07:12:07;2.13;;;0.93;;
16099;SDS011;8154;50.830;12.082;2024-02-15T07:14:35;2.85;;;1.30;;
16099;SDS011;8154;50.830;12.082;2024-02-15T07:17:02;2.87;;;1.30;;
16099;SDS011;8154;50.830;12.082;2024-02-15T07:19:30;3.13;;;1.30;;
16099;SDS011;8154;50.830;12.082;2024-02-15T07:22:00;1.90;;;1.00;;
16099;SDS011;8154;50.830;12.082;2024-02-15T07:24:28;2.15;;;1.20;;
16099;SDS011;8154;50.830;12.082;2024-02-15T07:26:56;2.85;;;1.20;;
16099;SDS011;8154;50.830;12.082;2024-02-15T07:29:22;2.37;;;1.10;;
16099;SDS011;8154;50.830;12.082;2024-02-15T07:31:50;2.15;;;1.00;;
16099;SDS011;8154;50.830;12.082;2024-02-15T07:34:17;2.28;;;1.00;;
16099;SDS011;8154;50.830;12.082;2024-02-15T07:36:44;3.55;;;1.30;;
16099;SDS011;8154;50.830;12.082;2024-02-15T07:39:12;2.38;;;1.15;;
16099;SDS011;8154;50.830;12.082;2024-02-15T07:41:48;2.50;;;1.10;;
16099;SDS011;8154;50.830;12.082;2024-02-15T07:44:16;2.28;;;1.00;;
16099;SDS011;8154;50.830;12.082;2024-02-15T07:46:45;2.58;;;1.25;;
16099;SDS011;8154;50.830;12.082;2024-02-15T07:49:14;2.00;;;0.90;;
16099;SDS011;8154;50.830;12.082;2024-02-15T07:51:43;2.05;;;1.10;;
16099;SDS011;8154;50.830;12.082;2024-02-15T07:54:10;2.47;;;1.10;;
16099;SDS011;8154;50.830;12.082;2024-02-15T07:56:38;2.08;;;1.08;;
16099;SDS011;8154;50.830;12.082;2024-02-15T07:59:05;2.80;;;1.38;;
16099;SDS011;8154;50.830;12.082;2024-02-15T08:01:34;2.08;;;1.00;;
16099;SDS011;8154;50.830;12.082;2024-02-15T08:04:02;2.58;;;1.10;;
16099;SDS011;8154;50.830;12.082;2024-02-15T08:06:30;1.70;;;0.87;;
16099;SDS011;8154;50.830;12.082;2024-02-15T08:08:59;2.35;;;1.10;;
16099;SDS011;8154;50.830;12.082;2024-02-15T08:11:28;2.65;;;1.10;;
16099;SDS011;8154;50.830;12.082;2024-02-15T08:13:54;2.10;;;1.00;;
16099;SDS011;8154;50.830;12.082;2024-02-15T08:16:25;2.17;;;1.00;;
16099;SDS011;8154;50.830;12.082;2024-02-15T08:18:55;2.50;;;1.10;;
16099;SDS011;8154;50.830;12.082;2024-02-15T08:24:02;2.25;;;1.00;;
16099;SDS011;8154;50.830;12.082;2024-02-15T08:26:32;2.28;;;1.00;;
16099;SDS011;8154;50.830;12.082;2024-02-15T08:29:01;2.47;;;1.10;;
16099;SDS011;8154;50.830;12.082;2024-02-15T08:31:30;2.60;;;1.23;;
16099;SDS011;8154;50.830;12.082;2024-02-15T08:33:58;2.17;;;1.00;;
16099;SDS011;8154;50.830;12.082;2024-02-15T08:36:26;1.92;;;1.00;;
16099;SDS011;8154;50.830;12.082;2024-02-15T08:38:53;2.63;;;1.00;;
16099;SDS011;8154;50.830;12.082;2024-02-15T08:41:22;2.45;;;1.30;;
16099;SDS011;8154;50.830;12.082;2024-02-15T08:43:53;2.70;;;1.27;;
16099;SDS011;8154;50.830;12.082;2024-02-15T08:46:22;1.92;;;1.00;;
16099;SDS011;8154;50.830;12.082;2024-02-15T08:48:53;2.28;;;1.00;;
16099;SDS011;8154;50.830;12.082;2024-02-15T08:51:19;2.25;;;1.20;;
16099;SDS011;8154;50.830;12.082;2024-02-15T08:53:49;2.22;;;1.02;;
16099;SDS011;8154;50.830;12.082;2024-02-15T08:56:17;2.27;;;1.03;;
16099;SDS011;8154;50.830;12.082;2024-02-15T08:58:45;2.25;;;1.00;;
16099;SDS011;8154;50.830;12.082;2024-02-15T09:01:12;2.33;;;1.00;;
16099;SDS011;8154;50.830;12.082;2024-02-15T09:03:39;1.77;;;0.95;;
16099;SDS011;8154;50.830;12.082;2024-02-15T09:06:06;2.47;;;1.30;;
16099;SDS011;8154;50.830;12.082;2024-02-15T09:08:34;2.27;;;1.00;;
16099;SDS011;8154;50.830;12.082;2024-02-15T09:11:01;2.22;;;1.10;;
16099;SDS011;8154;50.830;12.082;2024-02-15T09:13:28;2.78;;;1.10;;
16099;SDS011;8154;50.830;12.082;2024-02-15T09:15:55;2.40;;;1.15;;
16099;SDS011;8154;50.830;12.082;2024-02-15T09:18:22;2.40;;;1.10;;
16099;SDS011;8154;50.830;12.082;2024-02-15T09:20:48;2.27;;;1.20;;
16099;SDS011;8154;50.830;12.082;2024-02-15T09:23:23;2.05;;;1.00;;
16099;SDS011;8154;50.830;12.082;2024-02-15T09:25:50;1.65;;;0.90;;
16099;SDS011;8154;50.830;12.082;2024-02-15T09:28:18;1.73;;;1.10;;
16099;SDS011;8154;50.830;12.082;2024-02-15T09:30:50;2.20;;;1.00;;
16099;SDS011;8154;50.830;12.082;2024-02-15T09:33:25;2.33;;;1.13;;
16099;SDS011;8154;50.830;12.082;2024-02-15T09:35:52;2.65;;;1.10;;
16099;SDS011;8154;50.830;12.082;2024-02-15T09:38:23;2.55;;;1.00;;
16099;SDS011;8154;50.830;12.082;2024-02-15T09:40:52;2.50;;;1.00;;
16099;SDS011;8154;50.830;12.082;2024-02-15T09:43:21;2.08;;;1.10;;
16099;SDS011;8154;50.830;12.082;2024-02-15T09:45:54;2.27;;;1.00;;
16099;SDS011;8154;50.830;12.082;2024-02-15T09:48:23;1.92;;;1.00;;
16099;SDS011;8154;50.830;12.082;2024-02-15T09:50:52;2.40;;;1.00;;
16099;SDS011;8154;50.830;12.082;2024-02-15T09:53:21;2.72;;;1.10;;
16099;SDS011;8154;50.830;12.082;2024-02-15T09:55:53;2.20;;;1.00;;
16099;SDS011;8154;50.830;12.082;2024-02-15T09:58:22;2.20;;;1.07;;
16099;SDS011;8154;50.830;12.082;2024-02-15T10:00:54;2.40;;;1.20;;
16099;SDS011;8154;50.830;12.082;2024-02-15T10:03:22;2.05;;;1.02;;
16099;SDS011;8154;50.830;12.082;2024-02-15T10:05:52;2.42;;;1.10;;
16099;SDS011;8154;50.830;12.082;2024-02-15T10:08:19;1.80;;;0.90;;
16099;SDS011;8154;50.830;12.082;2024-02-15T10:10:55;2.00;;;0.90;;
16099;SDS011;8154;50.830;12.082;2024-02-15T10:13:34;1.60;;;0.80;;
16099;SDS011;8154;50.830;12.082;2024-02-15T10:16:15;2.92;;;1.10;;
16099;SDS011;8154;50.830;12.082;2024-02-15T10:18:42;2.13;;;1.08;;
16099;SDS011;8154;50.830;12.082;2024-02-15T10:21:08;2.35;;;1.10;;
16099;SDS011;8154;50.830;12.082;2024-02-15T10:23:36;1.73;;;0.87;;
16099;SDS011;8154;50.830;12.082;2024-02-15T10:26:18;2.45;;;1.10;;
16099;SDS011;8154;50.830;12.082;2024-02-15T10:28:57;2.05;;;0.90;;
16099;SDS011;8154;50.830;12.082;2024-02-15T10:31:35;2.10;;;1.02;;
16099;SDS011;8154;50.830;12.082;2024-02-15T10:34:07;2.15;;;1.00;;
16099;SDS011;8154;50.830;12.082;2024-02-15T10:36:35;2.23;;;0.90;;
16099;SDS011;8154;50.830;12.082;2024-02-15T10:39:20;2.97;;;1.17;;
16099;SDS011;8154;50.830;12.082;2024-02-15T10:41:48;1.92;;;1.00;;
16099;SDS011;8154;50.830;12.082;2024-02-15T10:44:19;1.50;;;0.80;;
16099;SDS011;8154;50.830;12.082;2024-02-15T10:46:50;2.03;;;0.80;;
16099;SDS011;8154;50.830;12.082;2024-02-15T10:51:50;2.30;;;1.02;;
16099;SDS011;8154;50.830;12.082;2024-02-15T10:54:40;2.53;;;1.05;;
16099;SDS011;8154;50.830;12.082;2024-02-15T10:57:12;1.65;;;0.93;;
16099;SDS011;8154;50.830;12.082;2024-02-15T11:00:16;1.80;;;0.95;;
16099;SDS011;8154;50.830;12.082;2024-02-15T11:02:50;2.40;;;0.90;;
16099;SDS011;8154;50.830;12.082;2024-02-15T11:05:20;2.30;;;0.95;;
16099;SDS011;8154;50.830;12.082;2024-02-15T11:07:51;2.08;;;0.90;;
16099;SDS011;8154;50.830;12.082;2024-02-15T11:10:19;2.30;;;1.02;;
16099;SDS011;8154;50.830;12.082;2024-02-15T11:12:46;1.90;;;1.00;;
16099;SDS011;8154;50.830;12.082;2024-02-15T11:15:25;1.87;;;0.90;;
16099;SDS011;8154;50.830;12.082;2024-02-15T11:18:08;2.35;;;1.00;;
16099;SDS011;8154;50.830;12.082;2024-02-15T11:23:04;1.70;;;0.90;;
16099;SDS011;8154;50.830;12.082;2024-02-15T11:25:33;1.90;;;0.80;;
16099;SDS011;8154;50.830;12.082;2024-02-15T11:30:48;2.05;;;1.00;;
16099;SDS011;8154;50.830;12.082;2024-02-15T11:33:32;1.40;;;0.80;;
16099;SDS011;8154;50.830;12.082;2024-02-15T11:38:35;1.75;;;0.80;;
16099;SDS011;8154;50.830;12.082;2024-02-15T11:41:05;2.30;;;0.97;;
16099;SDS011;8154;50.830;12.082;2024-02-15T11:43:49;1.77;;;1.00;;
16099;SDS011;8154;50.830;12.082;2024-02-15T11:46:24;2.22;;;0.90;;
16099;SDS011;8154;50.830;12.082;2024-02-15T11:48:52;2.70;;;1.10;;
16099;SDS011;8154;50.830;12.082;2024-02-15T11:51:30;2.08;;;0.90;;
16099;SDS011;8154;50.830;12.082;2024-02-15T11:54:09;1.70;;;0.90;;
16099;SDS011;8154;50.830;12.082;2024-02-15T11:59:16;2.33;;;1.08;;
16099;SDS011;8154;50.830;12.082;2024-02-15T12:02:03;2.45;;;1.00;;
16099;SDS011;8154;50.830;12.082;2024-02-15T12:04:49;2.00;;;1.00;;
16099;SDS011;8154;50.830;12.082;2024-02-15T12:07:33;1.40;;;0.90;;
16099;SDS011;8154;50.830;12.082;2024-02-15T12:10:19;1.20;;;0.80;;
16099;SDS011;8154;50.830;12.082;2024-02-15T12:13:05;1.60;;;1.00;;
16099;SDS011;8154;50.830;12.082;2024-02-15T12:15:57;1.90;;;0.82;;
16099;SDS011;8154;50.830;12.082;2024-02-15T12:18:43;2.00;;;0.88;;
16099;SDS011;8154;50.830;12.082;2024-02-15T12:21:19;2.37;;;0.90;;
16099;SDS011;8154;50.830;12.082;2024-02-15T12:23:51;1.67;;;0.90;;
16099;SDS011;8154;50.830;12.082;2024-02-15T12:26:19;1.88;;;0.90;;
16099;SDS011;8154;50.830;12.082;2024-02-15T12:28:52;1.77;;;0.90;;
16099;SDS011;8154;50.830;12.082;2024-02-15T12:31:26;1.83;;;0.90;;
16099;SDS011;8154;50.830;12.082;2024-02-15T12:34:03;1.93;;;1.00;;
16099;SDS011;8154;50.830;12.082;2024-02-15T12:36:34;2.33;;;1.08;;
16099;SDS011;8154;50.830;12.082;2024-02-15T12:39:04;1.90;;;0.90;;
16099;SDS011;8154;50.830;12.082;2024-02-15T12:41:38;2.83;;;1.10;;
16099;SDS011;8154;50.830;12.082;2024-02-15T12:44:08;2.53;;;1.10;;
16099;SDS011;8154;50.830;12.082;2024-02-15T12:46:37;2.27;;;1.00;;
16099;SDS011;8154;50.830;12.082;2024-02-15T12:51:50;1.55;;;0.70;;
16099;SDS011;8154;50.830;12.082;2024-02-15T12:54:21;1.73;;;0.80;;
16099;SDS011;8154;50.830;12.082;2024-02-15T12:56:50;1.88;;;0.90;;
16099;SDS011;8154;50.830;12.082;2024-02-15T12:59:35;1.77;;;0.90;;
16099;SDS011;8154;50.830;12.082;2024-02-15T13:02:03;1.45;;;0.80;;
16099;SDS011;8154;50.830;12.082;2024-02-15T13:04:33;2.67;;;1.30;;
16099;SDS011;8154;50.830;12.082;2024-02-15T13:06:59;1.83;;;0.95;;
16099;SDS011;8154;50.830;12.082;2024-02-15T13:09:27;2.45;;;1.00;;
16099;SDS011;8154;50.830;12.082;2024-02-15T13:11:54;2.00;;;0.83;;
16099;SDS011;8154;50.830;12.082;2024-02-15T13:14:21;1.88;;;0.90;;
16099;SDS011;8154;50.830;12.082;2024-02-15T13:16:51;1.85;;;0.90;;
16099;SDS011;8154;50.830;12.082;2024-02-15T13:19:18;1.38;;;0.77;;
16099;SDS011;8154;50.830;12.082;2024-02-15T13:21:48;2.00;;;0.90;;
16099;SDS011;8154;50.830;12.082;2024-02-15T13:24:19;1.87;;;0.80;;
16099;SDS011;8154;50.830;12.082;2024-02-15T13:26:48;1.95;;;0.80;;
16099;SDS011;8154;50.830;12.082;2024-02-15T13:29:15;1.70;;;0.80;;
16099;SDS011;8154;50.830;12.082;2024-02-15T13:31:42;1.90;;;0.80;;
16099;SDS011;8154;50.830;12.082;2024-02-15T13:34:09;1.60;;;0.80;;
16099;SDS011;8154;50.830;12.082;2024-02-15T13:36:37;1.97;;;1.00;;
16099;SDS011;8154;50.830;12.082;2024-02-15T13:39:07;1.92;;;1.00;;
16099;SDS011;8154;50.830;12.082;2024-02-15T13:41:36;1.40;;;0.90;;
16099;SDS011;8154;50.830;12.082;2024-02-15T13:44:04;2.05;;;1.00;;
16099;SDS011;8154;50.830;12.082;2024-02-15T13:46:33;1.38;;;0.85;;
16099;SDS011;8154;50.830;12.082;2024-02-15T13:49:00;1.73;;;1.00;;
16099;SDS011;8154;50.830;12.082;2024-02-15T13:51:28;1.58;;;0.80;;
16099;SDS011;8154;50.830;12.082;2024-02-15T13:53:54;2.15;;;0.98;;
16099;SDS011;8154;50.830;12.082;2024-02-15T13:56:23;1.77;;;0.95;;
16099;SDS011;8154;50.830;12.082;2024-02-15T13:58:50;1.50;;;0.80;;
16099;SDS011;8154;50.830;12.082;2024-02-15T14:01:16;1.77;;;0.97;;
16099;SDS011;8154;50.830;12.082;2024-02-15T14:03:45;1.55;;;0.90;;
16099;SDS011;8154;50.830;12.082;2024-02-15T14:06:12;1.73;;;0.90;;
16099;SDS011;8154;50.830;12.082;2024-02-15T14:08:43;1.95;;;1.00;;
16099;SDS011;8154;50.830;12.082;2024-02-15T14:11:09;1.42;;;0.80;;
16099;SDS011;8154;50.830;12.082;2024-02-15T14:13:37;1.50;;;0.70;;
16099;SDS011;8154;50.830;12.082;2024-02-15T14:16:04;1.33;;;0.70;;
16099;SDS011;8154;50.830;12.082;2024-02-15T14:18:34;1.70;;;0.82;;
16099;SDS011;8154;50.830;12.082;2024-02-15T14:21:02;1.95;;;1.10;;
16099;SDS011;8154;50.830;12.082;2024-02-15T14:23:29;1.83;;;0.80;;
16099;SDS011;8154;50.830;12.082;2024-02-15T14:25:56;1.07;;;0.77;;
16099;SDS011;8154;50.830;12.082;2024-02-15T14:28:27;2.05;;;0.90;;
16099;SDS011;8154;50.830;12.082;2024-02-15T14:30:53;1.95;;;0.90;;
16099;SDS011;8154;50.830;12.082;2024-02-15T14:33:41;2.28;;;1.05;;
16099;SDS011;8154;50.830;12.082;2024-02-15T14:36:09;1.63;;;0.90;;
16099;SDS011;8154;50.830;12.082;2024-02-15T14:38:35;1.30;;;0.80;;
16099;SDS011;8154;50.830;12.082;2024-02-15T14:41:01;1.67;;;0.90;;
16099;SDS011;8154;50.830;12.082;2024-02-15T14:43:31;1.50;;;0.98;;
16099;SDS011;8154;50.830;12.082;2024-02-15T14:45:58;1.75;;;1.00;;
16099;SDS011;8154;50.830;12.082;2024-02-15T14:48:28;2.00;;;0.95;;
16099;SDS011;8154;50.830;12.082;2024-02-15T14:50:56;1.40;;;0.90;;
16099;SDS011;8154;50.830;12.082;2024-02-15T14:53:23;1.55;;;0.80;;
16099;SDS011;8154;50.830;12.082;2024-02-15T14:55:51;1.50;;;0.88;;
16099;SDS011;8154;50.830;12.082;2024-02-15T14:58:20;1.30;;;0.70;;
16099;SDS011;8154;50.830;12.082;2024-02-15T15:00:49;1.40;;;0.70;;
16099;SDS011;8154;50.830;12.082;2024-02-15T15:03:20;1.40;;;0.90;;
16099;SDS011;8154;50.830;12.082;2024-02-15T15:05:47;1.77;;;0.98;;
16099;SDS011;8154;50.830;12.082;2024-02-15T15:08:34;1.90;;;0.95;;
16099;SDS011;8154;50.830;12.082;2024-02-15T15:11:19;1.65;;;0.98;;
16099;SDS011;8154;50.830;12.082;2024-02-15T15:14:04;1.48;;;0.90;;
16099;SDS011;8154;50.830;12.082;2024-02-15T15:16:31;1.30;;;0.80;;
16099;SDS011;8154;50.830;12.082;2024-02-15T15:18:58;1.67;;;0.90;;
16099;SDS011;8154;50.830;12.082;2024-02-15T15:21:25;1.40;;;0.80;;
16099;SDS011;8154;50.830;12.082;2024-02-15T15:23:55;1.52;;;0.90;;